Time;durP1;ratioP1;P1;durP2;ratioP2;P2;SDS_P1;SDS_P2;PMS_P1;PMS_P2;Temp;Humidity;BMP_temperature;BMP_pressure;BME280_temperature;BME280_humidity;BME280_pressure;Samples;Min_cycle;Max_cycle;Signal;HPM_P1;HPM_P2
2022/12/13 00:01:39;;;;;;;35.45;17.38;;;;;;;-144.32;100.00;68061.97;11155822;23;20046;-80
2022/12/13 00:06:43;;;;;;;;;;;;;;;-144.32;100.00;68061.97;10376193;28;20073;-78
2022/12/13 00:11:51;;;;;;;34.08;16.63;;;;;;;-144.32;100.00;68061.97;10502024;23;19996;-84
2022/12/13 00:16:51;;;;;;;31.20;15.63;;;;;;;-144.32;100.00;68061.97;10343293;28;20056;-83
2022/12/13 00:21:52;;;;;;;34.55;16.25;;;;;;;-144.32;100.00;68061.97;10360036;28;20058;-81
2022/12/13 00:26:54;;;;;;;29.58;15.38;;;;;;;-144.32;100.00;68061.97;10355395;28;20042;-81
2022/12/13 00:31:55;;;;;;;31.40;15.83;;;;;;;-144.32;100.00;68061.97;10344207;28;20038;-78
2022/12/13 00:36:57;;;;;;;28.95;15.32;;;;;;;-144.32;100.00;68061.97;10347429;28;20042;-80
2022/12/13 00:41:59;;;;;;;33.55;15.85;;;;;;;-144.32;100.00;68061.97;10320628;28;20802;-79
2022/12/13 00:47:00;;;;;;;32.88;13.93;;;;;;;-144.32;100.00;68061.97;10358537;28;20149;-84
2022/12/13 00:52:00;;;;;;;31.30;14.82;;;;;;;-144.32;100.00;68061.97;10390661;28;20030;-78
2022/12/13 00:57:02;;;;;;;29.20;15.68;;;;;;;-144.32;100.00;68061.97;10398766;28;20042;-83
2022/12/13 01:02:03;;;;;;;28.10;15.38;;;;;;;-144.32;100.00;68061.97;10345409;28;20050;-83
2022/12/13 01:07:06;;;;;;;31.27;16.77;;;;;;;-144.32;100.00;68061.97;10354597;28;20050;-82
2022/12/13 01:12:09;;;;;;;32.42;16.23;;;;;;;-144.32;100.00;68061.97;10351906;28;20049;-80
2022/12/13 01:17:10;;;;;;;31.40;15.38;;;;;;;-144.32;100.00;68061.97;10348644;28;20061;-82
2022/12/13 01:22:11;;;;;;;26.90;14.52;;;;;;;-144.32;100.00;68061.97;10346454;28;20157;-82
2022/12/13 01:27:13;;;;;;;34.92;15.30;;;;;;;-144.32;100.00;68061.97;10349718;28;20053;-82
2022/12/13 01:32:14;;;;;;;32.97;14.63;;;;;;;-144.32;100.00;68061.97;10350173;28;20038;-82
2022/12/13 01:37:16;;;;;;;27.63;14.88;;;;;;;-144.32;100.00;68061.97;10340626;28;20046;-82
2022/12/13 01:42:16;;;;;;;31.55;15.15;;;;;;;-144.32;100.00;68061.97;10341781;28;20054;-79
2022/12/13 01:47:24;;;;;;;28.45;13.95;;;;;;;-144.32;100.00;68061.97;10337092;28;20038;-81
2022/12/13 01:52:29;;;;;;;28.65;14.23;;;;;;;-144.32;100.00;68061.97;10351084;28;20578;-81
2022/12/13 01:57:32;;;;;;;32.78;14.70;;;;;;;-144.32;100.00;68061.97;10346597;28;20069;-79
2022/12/13 02:02:33;;;;;;;29.98;13.98;;;;;;;-144.32;100.00;68061.97;10323388;28;20565;-80
2022/12/13 02:07:37;;;;;;;28.73;14.73;;;;;;;-144.32;100.00;68061.97;10322240;28;20398;-82
2022/12/13 02:12:40;;;;;;;;;;;;;;;-144.32;100.00;68061.97;10343597;28;20050;-82
2022/12/13 02:17:46;;;;;;;27.75;14.27;;;;;;;-144.32;100.00;68061.97;10349092;28;19922;-80
2022/12/13 02:23:32;;;;;;;27.70;13.25;;;;;;;-144.32;100.00;68061.97;10351905;28;20034;-81
2022/12/13 02:29:00;;;;;;;27.48;14.38;;;;;;;-144.32;100.00;68061.97;10257755;28;20062;-81
2022/12/13 02:34:12;;;;;;;28.15;14.40;;;;;;;-144.32;100.00;68061.97;10352432;28;20037;-82
2022/12/13 02:39:21;;;;;;;33.38;14.63;;;;;;;-144.32;100.00;68061.97;10356187;28;20078;-78
2022/12/13 02:44:38;;;;;;;26.02;13.55;;;;;;;-144.32;100.00;68061.97;10408266;28;20042;-77
2022/12/13 02:49:43;;;;;;;25.67;13.15;;;;;;;-144.32;100.00;68061.97;10374657;28;20034;-78
2022/12/13 02:54:44;;;;;;;30.48;15.10;;;;;;;-144.32;100.00;68061.97;10396678;28;20037;-78
2022/12/13 02:59:45;;;;;;;29.40;15.27;;;;;;;-144.32;100.00;68061.97;10406053;28;20042;-79
2022/12/13 03:10:45;;;;;;;32.38;16.08;;;;;;;-144.32;100.00;68061.97;10400031;28;20030;-79
2022/12/13 03:15:57;;;;;;;25.35;14.75;;;;;;;-144.32;100.00;68061.97;10396184;28;20053;-77
2022/12/13 03:21:07;;;;;;;32.00;14.30;;;;;;;-144.32;100.00;68061.97;10388306;28;20054;-79
2022/12/13 03:26:11;;;;;;;24.25;12.90;;;;;;;-144.32;100.00;68061.97;10392006;28;20053;-80
2022/12/13 03:31:12;;;;;;;26.80;13.52;;;;;;;-144.32;100.00;68061.97;10396715;28;20041;-82
2022/12/13 03:36:17;;;;;;;27.83;14.25;;;;;;;-144.32;100.00;68061.97;10353463;28;20594;-81
2022/12/13 03:41:30;;;;;;;28.30;13.50;;;;;;;-144.32;100.00;68061.97;10345667;28;20395;-83
2022/12/13 03:46:31;;;;;;;29.67;13.27;;;;;;;-144.32;100.00;68061.97;10351617;28;20073;-85
2022/12/13 03:51:33;;;;;;;24.17;12.63;;;;;;;-144.32;100.00;68061.97;10347990;28;20124;-83
2022/12/13 03:56:33;;;;;;;23.13;12.57;;;;;;;-144.32;100.00;68061.97;10344822;28;20065;-84
2022/12/13 04:01:34;;;;;;;24.30;13.00;;;;;;;-144.32;100.00;68061.97;10347559;28;20046;-84
2022/12/13 04:06:35;;;;;;;30.23;14.40;;;;;;;-144.32;100.00;68061.97;10358615;28;20096;-83
2022/12/13 04:16:56;;;;;;;31.45;13.50;;;;;;;-144.32;100.00;68061.97;10336334;28;20042;-81
2022/12/13 04:21:56;;;;;;;32.45;14.07;;;;;;;-144.32;100.00;68061.97;10349411;28;20423;-83
2022/12/13 04:26:57;;;;;;;28.08;12.15;;;;;;;-144.32;100.00;68061.97;10358155;28;20109;-83
2022/12/13 04:31:58;;;;;;;28.02;13.00;;;;;;;-144.32;100.00;68061.97;10356839;28;20049;-80
2022/12/13 04:36:58;;;;;;;26.48;13.10;;;;;;;-144.32;100.00;68061.97;10385217;28;20042;-77
2022/12/13 04:42:01;;;;;;;23.63;12.05;;;;;;;-144.32;100.00;68061.97;10359324;28;20267;-81
2022/12/13 04:47:06;;;;;;;23.65;12.15;;;;;;;-144.32;100.00;68061.97;10358910;28;20049;-80
2022/12/13 04:52:09;;;;;;;28.95;13.57;;;;;;;-144.32;100.00;68061.97;10329617;28;20414;-81
2022/12/13 04:57:11;;;;;;;29.40;13.75;;;;;;;-144.32;100.00;68061.97;10342505;28;20044;-80
2022/12/13 05:02:12;;;;;;;23.53;11.33;;;;;;;-144.32;100.00;68061.97;10342614;28;20057;-77
2022/12/13 05:07:12;;;;;;;25.05;12.85;;;;;;;-144.32;100.00;68061.97;10382226;28;20057;-78
2022/12/13 05:12:14;;;;;;;27.83;14.73;;;;;;;-144.32;100.00;68061.97;10387691;28;20097;-81
2022/12/13 05:17:16;;;;;;;35.92;16.17;;;;;;;-144.32;100.00;68061.97;10382144;28;20038;-79
2022/12/13 05:22:16;;;;;;;26.65;12.88;;;;;;;-144.32;100.00;68061.97;10383550;28;20034;-79
2022/12/13 05:27:17;;;;;;;31.52;15.40;;;;;;;-144.32;100.00;68061.97;10395428;28;20076;-77
2022/12/13 05:32:18;;;;;;;32.63;16.25;;;;;;;-144.32;100.00;68061.97;10357339;28;20042;-82
2022/12/13 05:37:19;;;;;;;30.65;14.30;;;;;;;-144.32;100.00;68061.97;10353892;28;20037;-77
2022/12/13 05:42:19;;;;;;;26.95;15.82;;;;;;;-144.32;100.00;68061.97;10352392;28;20050;-78
2022/12/13 05:47:22;;;;;;;;;;;;;;;-144.32;100.00;68061.97;10338507;28;20037;-83
2022/12/13 05:52:23;;;;;;;31.80;15.07;;;;;;;-144.32;100.00;68061.97;10361743;28;19928;-78
2022/12/13 05:57:24;;;;;;;29.92;13.93;;;;;;;-144.32;100.00;68061.97;10388058;28;20085;-78
2022/12/13 06:02:24;;;;;;;32.28;15.35;;;;;;;-144.32;100.00;68061.97;10391148;28;20069;-82
2022/12/13 06:07:26;;;;;;;32.45;14.57;;;;;;;-144.32;100.00;68061.97;10366113;28;20102;-81
2022/12/13 06:12:29;;;;;;;31.85;14.30;;;;;;;-144.32;100.00;68061.97;10360482;28;20052;-81
2022/12/13 06:17:34;;;;;;;31.95;15.15;;;;;;;-144.32;100.00;68061.97;10377314;28;20034;-79
2022/12/13 06:22:34;;;;;;;28.92;14.98;;;;;;;-144.32;100.00;68061.97;10391460;28;20026;-79
2022/12/13 06:27:36;;;;;;;26.60;13.85;;;;;;;-144.32;100.00;68061.97;10387380;28;20033;-81
2022/12/13 06:32:37;;;;;;;23.77;14.00;;;;;;;-144.32;100.00;68061.97;10370751;28;20037;-80
2022/12/13 06:37:39;;;;;;;26.98;13.43;;;;;;;-144.32;100.00;68061.97;10356698;28;20037;-80
2022/12/13 06:42:40;;;;;;;25.08;13.35;;;;;;;-144.32;100.00;68061.97;10379677;28;20101;-84
2022/12/13 06:47:40;;;;;;;29.58;14.52;;;;;;;-144.32;100.00;68061.97;10365456;28;20045;-76
2022/12/13 06:52:41;;;;;;;31.63;15.55;;;;;;;-144.32;100.00;68061.97;10379139;28;20068;-80
2022/12/13 06:57:42;;;;;;;29.30;15.18;;;;;;;-144.32;100.00;68061.97;10387426;28;20050;-83
2022/12/13 07:02:43;;;;;;;36.17;18.73;;;;;;;-144.32;100.00;68061.97;10396496;28;20038;-84
2022/12/13 07:07:43;;;;;;;36.63;17.17;;;;;;;-144.32;100.00;68061.97;10386950;28;20045;-81
2022/12/13 07:12:44;;;;;;;31.35;15.20;;;;;;;-144.32;100.00;68061.97;10299009;28;1175187;-81
2022/12/13 07:17:50;;;;;;;28.17;15.50;;;;;;;-144.32;100.00;68061.97;10344459;28;20043;-80
2022/12/13 07:22:55;;;;;;;34.55;17.17;;;;;;;-144.32;100.00;68061.97;10341229;28;20039;-78
2022/12/13 07:28:04;;;;;;;33.70;14.82;;;;;;;-144.32;100.00;68061.97;10347299;28;20411;-83
2022/12/13 07:33:05;;;;;;;29.50;15.50;;;;;;;-144.32;100.00;68061.97;10344934;28;20057;-80
2022/12/13 07:38:07;;;;;;;29.77;15.93;;;;;;;-144.32;100.00;68061.97;10339566;28;20030;-82
2022/12/13 07:43:12;;;;;;;31.77;17.70;;;;;;;-144.32;100.00;68061.97;10356228;28;20101;-82
2022/12/13 07:48:12;;;;;;;32.20;15.98;;;;;;;-144.32;100.00;68061.97;10364847;28;20141;-82
2022/12/13 07:53:13;;;;;;;42.80;18.45;;;;;;;-144.32;100.00;68061.97;10342413;28;20402;-83
2022/12/13 07:58:14;;;;;;;37.22;17.98;;;;;;;-144.32;100.00;68061.97;10349514;28;20539;-81
2022/12/13 08:03:15;;;;;;;33.53;15.65;;;;;;;-144.32;100.00;68061.97;10354052;28;20173;-82
2022/12/13 08:08:17;;;;;;;28.63;14.05;;;;;;;-144.32;100.00;68061.97;10354629;28;20177;-82
2022/12/13 08:13:19;;;;;;;27.25;13.93;;;;;;;-144.32;100.00;68061.97;10346822;28;20133;-80
2022/12/13 08:18:21;;;;;;;30.10;15.23;;;;;;;-144.32;100.00;68061.97;10347325;28;20041;-82
2022/12/13 08:23:21;;;;;;;27.85;14.52;;;;;;;-144.32;100.00;68061.97;10352389;28;20309;-81
2022/12/13 08:28:24;;;;;;;28.42;15.95;;;;;;;-144.32;100.00;68061.97;10356300;28;20041;-81
2022/12/13 08:33:26;;;;;;;29.35;14.65;;;;;;;-144.32;100.00;68061.97;10354078;28;20485;-81
2022/12/13 08:38:27;;;;;;;27.65;13.65;;;;;;;-144.32;100.00;68061.97;10339673;28;20037;-81
2022/12/13 08:43:30;;;;;;;28.83;13.48;;;;;;;-144.32;100.00;68061.97;10345311;28;20050;-82
2022/12/13 08:48:31;;;;;;;27.40;13.35;;;;;;;-144.32;100.00;68061.97;10357400;28;20049;-81
2022/12/13 08:53:32;;;;;;;31.27;15.13;;;;;;;-144.32;100.00;68061.97;10348193;28;20054;-80
2022/12/13 08:58:34;;;;;;;28.60;12.85;;;;;;;-144.32;100.00;68061.97;10343352;28;20173;-79
2022/12/13 09:03:36;;;;;;;24.00;13.50;;;;;;;-144.32;100.00;68061.97;10346375;28;20469;-79
2022/12/13 09:08:39;;;;;;;25.35;13.27;;;;;;;-144.32;100.00;68061.97;10336889;28;20039;-80
2022/12/13 09:13:42;;;;;;;24.77;12.35;;;;;;;-144.32;100.00;68061.97;10347236;28;20045;-78
2022/12/13 09:18:43;;;;;;;25.50;13.88;;;;;;;-144.32;100.00;68061.97;10348478;28;20038;-81
2022/12/13 09:23:44;;;;;;;23.00;12.68;;;;;;;-144.32;100.00;68061.97;10357335;28;20050;-81
2022/12/13 09:28:46;;;;;;;22.02;12.32;;;;;;;-144.32;100.00;68061.97;10373351;28;20043;-79
2022/12/13 09:33:49;;;;;;;24.67;13.02;;;;;;;-144.32;100.00;68061.97;10362579;28;20052;-81
2022/12/13 09:38:51;;;;;;;23.77;12.50;;;;;;;-144.32;100.00;68061.97;10390501;28;20058;-78
2022/12/13 09:43:58;;;;;;;26.08;13.45;;;;;;;-144.32;100.00;68061.97;10397083;28;20057;-77
2022/12/13 09:49:03;;;;;;;22.15;12.73;;;;;;;-144.32;100.00;68061.97;10382209;28;20051;-79
2022/12/13 09:54:06;;;;;;;24.42;13.13;;;;;;;-144.32;100.00;68061.97;10352292;28;20170;-79
2022/12/13 09:59:13;;;;;;;30.95;14.80;;;;;;;-144.32;100.00;68061.97;10361852;28;20096;-78
2022/12/13 10:04:14;;;;;;;31.58;16.73;;;;;;;-144.32;100.00;68061.97;10356243;28;20041;-79
2022/12/13 10:09:17;;;;;;;23.20;13.43;;;;;;;-144.32;100.00;68061.97;10357794;28;20498;-78
2022/12/13 10:14:18;;;;;;;29.52;13.45;;;;;;;-144.32;100.00;68061.97;10385771;28;20123;-80
2022/12/13 10:19:27;;;;;;;22.85;13.05;;;;;;;-144.32;100.00;68061.97;10359710;28;20105;-78
2022/12/13 10:24:48;;;;;;;23.83;13.73;;;;;;;-144.32;100.00;68061.97;10360568;28;20039;-82
2022/12/13 10:30:11;;;;;;;27.17;13.75;;;;;;;-144.32;100.00;68061.97;10392889;28;20027;-76
2022/12/13 10:35:24;;;;;;;22.33;12.75;;;;;;;-144.32;100.00;68061.97;10363375;28;20118;-77
2022/12/13 10:40:32;;;;;;;22.90;11.87;;;;;;;-144.32;100.00;68061.97;10387346;28;20037;-79
2022/12/13 10:45:34;;;;;;;21.05;11.70;;;;;;;-144.32;100.00;68061.97;10386832;28;20046;-78
2022/12/13 10:50:38;;;;;;;19.40;10.82;;;;;;;-144.32;100.00;68061.97;10387645;28;20025;-78
2022/12/13 10:55:44;;;;;;;19.38;11.48;;;;;;;-144.32;100.00;68061.97;10382199;28;20057;-78
2022/12/13 11:00:48;;;;;;;18.70;10.98;;;;;;;-144.32;100.00;68061.97;10366813;28;20050;-79
2022/12/13 11:06:05;;;;;;;22.02;10.90;;;;;;;-144.32;100.00;68061.97;10390002;28;20095;-79
2022/12/13 11:11:09;;;;;;;19.83;10.85;;;;;;;-144.32;100.00;68061.97;10383673;28;20052;-80
2022/12/13 11:16:41;;;;;;;17.27;10.80;;;;;;;-144.32;100.00;68061.97;10383850;28;20034;-80
2022/12/13 11:21:47;;;;;;;19.73;9.68;;;;;;;-144.32;100.00;68061.97;10375729;28;20216;-78
2022/12/13 11:27:07;;;;;;;17.50;9.55;;;;;;;-144.32;100.00;68061.97;10383150;28;20043;-78
2022/12/13 11:32:49;;;;;;;15.35;9.68;;;;;;;-144.32;100.00;68061.97;10382071;28;20039;-78
2022/12/13 11:38:18;;;;;;;20.45;11.25;;;;;;;-144.32;100.00;68061.97;10376223;28;20032;-81
2022/12/13 11:43:46;;;;;;;16.10;9.25;;;;;;;-144.32;100.00;68061.97;10390439;28;20034;-81
2022/12/13 11:49:01;;;;;;;16.55;9.18;;;;;;;-144.32;100.00;68061.97;10386555;28;20037;-80
2022/12/13 11:54:09;;;;;;;15.43;10.25;;;;;;;-144.32;100.00;68061.97;10380344;28;20098;-79
2022/12/13 11:59:25;;;;;;;17.00;9.45;;;;;;;-144.32;100.00;68061.97;10390181;28;20033;-80
2022/12/13 12:04:56;;;;;;;17.85;9.70;;;;;;;-144.32;100.00;68061.97;10378799;28;20060;-81
2022/12/13 12:10:17;;;;;;;16.80;9.45;;;;;;;-144.32;100.00;68061.97;10344038;28;20058;-81
2022/12/13 12:15:27;;;;;;;17.83;10.15;;;;;;;-144.32;100.00;68061.97;10341225;28;20046;-82
2022/12/13 12:21:08;;;;;;;15.70;8.70;;;;;;;-144.32;100.00;68061.97;10324474;28;20046;-82
2022/12/13 12:26:16;;;;;;;12.20;7.32;;;;;;;-144.32;100.00;68061.97;10346379;28;20506;-80
2022/12/13 12:31:51;;;;;;;10.43;6.63;;;;;;;-144.32;100.00;68061.97;10348906;28;20081;-80
2022/12/13 12:37:19;;;;;;;11.23;6.68;;;;;;;-144.32;100.00;68061.97;10333649;28;20057;-82
2022/12/13 12:42:38;;;;;;;10.13;6.38;;;;;;;-144.32;100.00;68061.97;10341962;28;20042;-82
2022/12/13 12:47:52;;;;;;;11.00;5.57;;;;;;;-144.32;100.00;68061.97;10372249;28;20066;-79
2022/12/13 12:52:58;;;;;;;10.83;6.53;;;;;;;-144.32;100.00;68061.97;10464055;23;20110;-78
2022/12/13 12:58:17;;;;;;;8.23;5.50;;;;;;;-144.32;100.00;68061.97;10370387;28;20022;-77
2022/12/13 13:03:26;;;;;;;9.27;6.18;;;;;;;-144.32;100.00;68061.97;10373715;28;20054;-78
2022/12/13 13:08:30;;;;;;;9.77;5.90;;;;;;;-144.32;100.00;68061.97;10327986;28;20077;-79
2022/12/13 13:13:32;;;;;;;11.32;6.13;;;;;;;-144.32;100.00;68061.97;10340070;28;20042;-80
2022/12/13 13:18:51;;;;;;;10.30;6.00;;;;;;;-144.32;100.00;68061.97;10338594;28;20045;-79
2022/12/13 13:24:13;;;;;;;8.40;5.53;;;;;;;-144.32;100.00;68061.97;10337006;28;20050;-79
2022/12/13 13:29:35;;;;;;;8.60;5.38;;;;;;;-144.32;100.00;68061.97;10336212;28;20574;-79
2022/12/13 13:34:39;;;;;;;10.82;6.25;;;;;;;-144.32;100.00;68061.97;10349696;28;20045;-79
2022/12/13 13:39:57;;;;;;;10.55;5.50;;;;;;;-144.32;100.00;68061.97;10337671;28;20042;-78
2022/12/13 13:45:24;;;;;;;8.85;5.45;;;;;;;-144.32;100.00;68061.97;10330439;28;20134;-77
2022/12/13 13:51:06;;;;;;;9.73;5.88;;;;;;;-144.32;100.00;68061.97;10342345;28;20038;-80
2022/12/13 13:56:34;;;;;;;9.48;5.78;;;;;;;-144.32;100.00;68061.97;10358594;28;20041;-80
2022/12/13 14:02:20;;;;;;;8.65;5.70;;;;;;;-144.32;100.00;68061.97;10359169;28;20049;-79
2022/12/13 14:08:10;;;;;;;10.23;5.95;;;;;;;-144.32;100.00;68061.97;10371745;28;20064;-80
2022/12/13 14:14:06;;;;;;;9.52;5.18;;;;;;;-144.32;100.00;68061.97;10380721;28;20608;-79
2022/12/13 14:19:29;;;;;;;9.85;5.53;;;;;;;-144.32;100.00;68061.97;10390591;28;20065;-76
2022/12/13 14:24:47;;;;;;;10.18;5.60;;;;;;;-144.32;100.00;68061.97;10382938;28;20065;-77
2022/12/13 14:29:49;;;;;;;10.35;5.32;;;;;;;-144.32;100.00;68061.97;10381907;28;20050;-79
2022/12/13 14:34:50;;;;;;;9.48;5.30;;;;;;;-144.32;100.00;68061.97;10377216;28;20074;-77
2022/12/13 14:39:52;;;;;;;10.63;5.60;;;;;;;-144.32;100.00;68061.97;10333503;28;20118;-78
2022/12/13 14:44:52;;;;;;;9.32;5.28;;;;;;;-144.32;100.00;68061.97;10337853;28;20097;-80
2022/12/13 14:49:56;;;;;;;12.10;6.43;;;;;;;-144.32;100.00;68061.97;10334321;28;20479;-78
2022/12/13 14:55:04;;;;;;;9.30;5.90;;;;;;;-144.32;100.00;68061.97;10322664;28;20049;-79
2022/12/13 15:00:34;;;;;;;9.57;5.63;;;;;;;-144.32;100.00;68061.97;10330265;28;20391;-78
2022/12/13 15:05:49;;;;;;;9.68;6.03;;;;;;;-144.32;100.00;68061.97;10346892;28;20136;-78
2022/12/13 15:10:58;;;;;;;9.90;5.82;;;;;;;-144.32;100.00;68061.97;10335534;28;20511;-82
2022/12/13 15:16:05;;;;;;;12.25;7.20;;;;;;;-144.32;100.00;68061.97;10341468;28;20367;-83
2022/12/13 15:21:22;;;;;;;12.18;6.47;;;;;;;-144.32;100.00;68061.97;10361696;28;20042;-79
2022/12/13 15:26:28;;;;;;;12.00;6.47;;;;;;;-144.32;100.00;68061.97;10385143;28;20098;-79
2022/12/13 15:31:35;;;;;;;8.77;5.60;;;;;;;-144.32;100.00;68061.97;10391334;28;20042;-81
2022/12/13 15:36:37;;;;;;;11.98;7.47;;;;;;;-144.32;100.00;68061.97;10388268;28;20025;-81
2022/12/13 15:41:48;;;;;;;14.52;7.55;;;;;;;-144.32;100.00;68061.97;10392779;28;20022;-80
2022/12/13 15:46:52;;;;;;;16.80;7.97;;;;;;;-144.32;100.00;68061.97;10397732;28;20057;-80
2022/12/13 15:52:02;;;;;;;18.15;9.88;;;;;;;-144.32;100.00;68061.97;10368172;28;20050;-79
2022/12/13 15:57:13;;;;;;;14.80;8.48;;;;;;;-144.32;100.00;68061.97;10351220;28;20112;-80
2022/12/13 16:02:21;;;;;;;14.40;8.00;;;;;;;-144.32;100.00;68061.97;10362699;28;20046;-78
2022/12/13 16:07:26;;;;;;;12.90;7.03;;;;;;;-144.32;100.00;68061.97;10388740;28;20123;-79
2022/12/13 16:12:42;;;;;;;14.02;7.70;;;;;;;-144.32;100.00;68061.97;10388695;28;20269;-77
2022/12/13 16:18:05;;;;;;;12.77;7.10;;;;;;;-144.32;100.00;68061.97;10377548;28;20034;-80
2022/12/13 16:23:07;;;;;;;15.43;6.95;;;;;;;-144.32;100.00;68061.97;10346914;28;20050;-79
2022/12/13 16:28:15;;;;;;;12.13;6.68;;;;;;;-144.32;100.00;68061.97;10383032;28;20045;-76
2022/12/13 16:33:15;;;;;;;21.25;10.07;;;;;;;-144.32;100.00;68061.97;10384296;28;20105;-79
2022/12/13 16:38:16;;;;;;;18.00;8.95;;;;;;;-144.32;100.00;68061.97;10366163;28;20034;-78
2022/12/13 16:43:19;;;;;;;13.82;8.57;;;;;;;-144.32;100.00;68061.97;10332180;28;20599;-79
2022/12/13 16:48:20;;;;;;;18.40;8.68;;;;;;;-144.32;100.00;68061.97;10350726;28;20037;-80
2022/12/13 16:53:20;;;;;;;14.93;9.48;;;;;;;-144.32;100.00;68061.97;10389015;28;20033;-78
2022/12/13 16:58:22;;;;;;;19.73;10.15;;;;;;;-144.32;100.00;68061.97;10393777;28;20045;-79
2022/12/13 17:03:23;;;;;;;20.35;11.27;;;;;;;-144.32;100.00;68061.97;10379575;28;20038;-77
2022/12/13 17:08:24;;;;;;;25.10;13.35;;;;;;;-144.32;100.00;68061.97;10373586;28;20038;-78
2022/12/13 17:13:26;;;;;;;22.13;10.98;;;;;;;-144.32;100.00;68061.97;10351971;28;20607;-77
2022/12/13 17:18:27;;;;;;;19.77;9.17;;;;;;;-144.32;100.00;68061.97;10375646;28;20054;-78
2022/12/13 17:23:29;;;;;;;19.60;9.50;;;;;;;-144.32;100.00;68061.97;10368694;28;20141;-78
2022/12/13 17:28:30;;;;;;;16.98;9.43;;;;;;;-144.32;100.00;68061.97;10362409;28;20069;-77
2022/12/13 17:33:35;;;;;;;21.38;12.70;;;;;;;-144.32;100.00;68061.97;10373082;28;20045;-79
2022/12/13 17:38:36;;;;;;;22.45;12.05;;;;;;;-144.32;100.00;68061.97;10378819;28;20118;-77
2022/12/13 17:43:37;;;;;;;18.05;9.70;;;;;;;-144.32;100.00;68061.97;10365461;28;20035;-78
2022/12/13 17:48:38;;;;;;;14.63;7.60;;;;;;;-144.32;100.00;68061.97;10381447;28;20117;-77
2022/12/13 17:53:41;;;;;;;14.40;7.35;;;;;;;-144.32;100.00;68061.97;10384821;28;20014;-81
2022/12/13 17:58:42;;;;;;;15.47;9.53;;;;;;;-144.32;100.00;68061.97;10391807;28;20018;-75
2022/12/13 18:03:43;;;;;;;14.75;8.82;;;;;;;-144.32;100.00;68061.97;10403460;28;20033;-77
2022/12/13 18:08:45;;;;;;;17.80;9.50;;;;;;;-144.32;100.00;68061.97;10369415;28;20209;-77
2022/12/13 18:13:46;;;;;;;17.30;10.02;;;;;;;-144.32;100.00;68061.97;10390250;28;20042;-76
2022/12/13 18:18:47;;;;;;;19.98;11.18;;;;;;;-144.32;100.00;68061.97;10392599;28;20098;-78
2022/12/13 18:23:51;;;;;;;18.13;10.85;;;;;;;-144.32;100.00;68061.97;10378191;28;20050;-79
2022/12/13 18:28:52;;;;;;;20.17;10.95;;;;;;;-144.32;100.00;68061.97;10347918;28;20118;-77
2022/12/13 18:33:57;;;;;;;18.02;10.68;;;;;;;-144.32;100.00;68061.97;10349786;28;20056;-77
2022/12/13 18:38:58;;;;;;;23.13;12.45;;;;;;;-144.32;100.00;68061.97;10369460;28;20051;-81
2022/12/13 18:44:02;;;;;;;23.27;11.75;;;;;;;-144.32;100.00;68061.97;10388466;28;20038;-78
2022/12/13 18:49:09;;;;;;;30.60;16.00;;;;;;;-144.32;100.00;68061.97;10382589;28;20041;-79
2022/12/13 18:54:09;;;;;;;38.83;20.40;;;;;;;-144.32;100.00;68061.97;10379911;28;20046;-78
2022/12/13 18:59:11;;;;;;;39.50;20.73;;;;;;;-144.32;100.00;68061.97;10368374;28;20039;-81
2022/12/13 19:04:13;;;;;;;39.42;21.23;;;;;;;-144.32;100.00;68061.97;10379854;28;20101;-77
2022/12/13 19:09:14;;;;;;;41.03;21.95;;;;;;;-144.32;100.00;68061.97;10378846;28;20050;-78
2022/12/13 19:14:14;;;;;;;42.85;22.30;;;;;;;-144.32;100.00;68061.97;10386561;28;20027;-78
2022/12/13 19:19:15;;;;;;;41.28;22.00;;;;;;;-144.32;100.00;68061.97;10385722;28;20034;-78
2022/12/13 19:24:17;;;;;;;40.85;22.33;;;;;;;-144.32;100.00;68061.97;10396584;28;20049;-77
2022/12/13 19:29:17;;;;;;;33.75;18.83;;;;;;;-144.32;100.00;68061.97;10393467;28;20099;-81
2022/12/13 19:34:20;;;;;;;30.48;17.23;;;;;;;-144.32;100.00;68061.97;10367348;28;20053;-80
2022/12/13 19:39:21;;;;;;;32.30;17.55;;;;;;;-144.32;100.00;68061.97;10341176;28;20038;-78
2022/12/13 19:44:23;;;;;;;32.33;17.55;;;;;;;-144.32;100.00;68061.97;10356845;28;20121;-80
2022/12/13 19:49:29;;;;;;;29.40;15.32;;;;;;;-144.32;100.00;68061.97;10381256;28;20458;-80
2022/12/13 19:54:31;;;;;;;31.33;16.30;;;;;;;-144.32;100.00;68061.97;10347153;28;20406;-80
2022/12/13 19:59:38;;;;;;;25.45;12.70;;;;;;;-144.32;100.00;68061.97;10346787;28;20034;-81
2022/12/13 20:04:43;;;;;;;21.35;11.35;;;;;;;-144.32;100.00;68061.97;10347672;28;20100;-79
2022/12/13 20:09:48;;;;;;;18.52;9.88;;;;;;;-144.32;100.00;68061.97;10365888;28;20066;-82
2022/12/13 20:14:49;;;;;;;18.40;9.02;;;;;;;-144.32;100.00;68061.97;10361456;28;20050;-79
2022/12/13 20:19:50;;;;;;;14.18;8.38;;;;;;;-144.32;100.00;68061.97;10379742;28;20045;-82
2022/12/13 20:24:52;;;;;;;12.80;8.52;;;;;;;-144.32;100.00;68061.97;10364905;28;20054;-82
2022/12/13 20:29:54;;;;;;;13.25;8.05;;;;;;;-144.32;100.00;68061.97;10355464;28;20052;-83
2022/12/13 20:34:54;;;;;;;12.43;7.65;;;;;;;-144.32;100.00;68061.97;10363171;28;20042;-85
2022/12/13 20:39:58;;;;;;;12.87;8.67;;;;;;;-144.32;100.00;68061.97;10338130;28;20065;-82
2022/12/13 20:45:00;;;;;;;13.20;8.02;;;;;;;-144.32;100.00;68061.97;10347440;28;20050;-82
2022/12/13 20:50:02;;;;;;;;;;;;;;;-144.32;100.00;68061.97;10366266;28;20046;-81
2022/12/13 20:55:05;;;;;;;12.35;7.18;;;;;;;-144.32;100.00;68061.97;10374910;28;19931;-82
2022/12/13 21:00:12;;;;;;;13.03;7.90;;;;;;;-144.32;100.00;68061.97;10371425;28;20070;-82
2022/12/13 21:05:16;;;;;;;15.40;7.75;;;;;;;-144.32;100.00;68061.97;10322749;28;20046;-82
2022/12/13 21:10:17;;;;;;;13.43;7.57;;;;;;;-144.32;100.00;68061.97;10357016;28;20050;-83
2022/12/13 21:15:19;;;;;;;14.77;7.60;;;;;;;-144.32;100.00;68061.97;10356937;28;20042;-81
2022/12/13 21:20:21;;;;;;;16.60;8.57;;;;;;;-144.32;100.00;68061.97;10374902;28;20062;-84
2022/12/13 21:25:23;;;;;;;15.20;8.63;;;;;;;-144.32;100.00;68061.97;10361633;28;20050;-82
2022/12/13 21:30:23;;;;;;;12.65;8.23;;;;;;;-144.32;100.00;68061.97;10350165;28;20050;-82
2022/12/13 21:35:25;;;;;;;14.73;8.38;;;;;;;-144.32;100.00;68061.97;10337492;28;20050;-80
2022/12/13 21:40:28;;;;;;;12.80;7.30;;;;;;;-144.32;100.00;68061.97;10356496;28;20050;-80
2022/12/13 21:45:28;;;;;;;12.20;6.90;;;;;;;-144.32;100.00;68061.97;10390288;28;20045;-79
2022/12/13 21:50:29;;;;;;;14.63;7.50;;;;;;;-144.32;100.00;68061.97;10394248;28;20077;-80
2022/12/13 21:55:30;;;;;;;11.02;7.25;;;;;;;-144.32;100.00;68061.97;10389547;28;20037;-84
2022/12/13 22:00:33;;;;;;;15.70;7.47;;;;;;;-144.32;100.00;68061.97;10390435;28;20080;-79
2022/12/13 22:05:35;;;;;;;15.45;8.10;;;;;;;-144.32;100.00;68061.97;10366433;28;20102;-80
2022/12/13 22:11:11;;;;;;;12.27;6.65;;;;;;;-144.32;100.00;68061.97;10368769;28;20071;-81
2022/12/13 22:15:59;;;;;;;14.63;7.85;;;;;;;-144.32;100.00;68061.97;10353067;28;20053;-82
2022/12/13 22:20:59;;;;;;;13.55;8.10;;;;;;;-144.32;100.00;68061.97;10358784;28;20057;-82
2022/12/13 22:26:05;;;;;;;13.65;7.25;;;;;;;-144.32;100.00;68061.97;10351043;28;20077;-79
2022/12/13 22:31:08;;;;;;;14.77;8.45;;;;;;;-144.32;100.00;68061.97;10360265;28;20072;-80
2022/12/13 22:36:10;;;;;;;15.98;7.75;;;;;;;-144.32;100.00;68061.97;10364807;28;20042;-79
2022/12/13 22:41:14;;;;;;;15.40;7.25;;;;;;;-144.32;100.00;68061.97;10388625;28;20046;-79
2022/12/13 22:46:18;;;;;;;11.60;6.55;;;;;;;-144.32;100.00;68061.97;10388857;28;20069;-83